sensor_id;sensor_type;location;lat;lon;timestamp;P1;durP1;ratioP1;P2;durP2;ratioP2
13834;SDS011;6988;52.614;13.500;2022-07-06T00:04:28;3.40;;;0.90;;
13834;SDS011;6988;52.614;13.500;2022-07-06T00:09:20;1.73;;;0.60;;
13834;SDS011;6988;52.614;13.500;2022-07-06T00:14:12;5.63;;;1.00;;
13834;SDS011;6988;52.614;13.500;2022-07-06T00:19:04;1.93;;;0.70;;
13834;SDS011;6988;52.614;13.500;2022-07-06T00:23:57;1.80;;;0.77;;
13834;SDS011;6988;52.614;13.500;2022-07-06T00:28:48;1.07;;;0.70;;
13834;SDS011;6988;52.614;13.500;2022-07-06T00:33:40;2.40;;;0.90;;
13834;SDS011;6988;52.614;13.500;2022-07-06T00:38:32;2.60;;;0.80;;
13834;SDS011;6988;52.614;13.500;2022-07-06T00:43:25;1.30;;;0.80;;
13834;SDS011;6988;52.614;13.500;2022-07-06T00:48:16;2.00;;;1.03;;
13834;SDS011;6988;52.614;13.500;2022-07-06T00:53:08;1.23;;;0.73;;
13834;SDS011;6988;52.614;13.500;2022-07-06T00:58:01;3.37;;;1.00;;
13834;SDS011;6988;52.614;13.500;2022-07-06T01:02:56;2.03;;;0.80;;
13834;SDS011;6988;52.614;13.500;2022-07-06T01:07:49;1.00;;;0.70;;
13834;SDS011;6988;52.614;13.500;2022-07-06T01:12:44;3.00;;;0.93;;
13834;SDS011;6988;52.614;13.500;2022-07-06T01:17:39;1.20;;;0.80;;
13834;SDS011;6988;52.614;13.500;2022-07-06T01:22:32;3.60;;;0.80;;
13834;SDS011;6988;52.614;13.500;2022-07-06T01:27:24;3.73;;;0.80;;
13834;SDS011;6988;52.614;13.500;2022-07-06T01:32:16;1.50;;;0.80;;
13834;SDS011;6988;52.614;13.500;2022-07-06T01:37:07;2.97;;;0.90;;
13834;SDS011;6988;52.614;13.500;2022-07-06T01:42:00;3.03;;;0.93;;
13834;SDS011;6988;52.614;13.500;2022-07-06T01:46:52;1.00;;;0.70;;
13834;SDS011;6988;52.614;13.500;2022-07-06T01:51:44;1.97;;;0.90;;
13834;SDS011;6988;52.614;13.500;2022-07-06T01:56:36;1.70;;;1.00;;
13834;SDS011;6988;52.614;13.500;2022-07-06T02:01:31;3.93;;;0.97;;
13834;SDS011;6988;52.614;13.500;2022-07-06T02:06:23;1.47;;;0.80;;
13834;SDS011;6988;52.614;13.500;2022-07-06T02:11:14;2.50;;;0.77;;
13834;SDS011;6988;52.614;13.500;2022-07-06T02:16:08;3.00;;;1.00;;
13834;SDS011;6988;52.614;13.500;2022-07-06T02:21:01;4.87;;;1.07;;
13834;SDS011;6988;52.614;13.500;2022-07-06T02:25:54;2.33;;;1.00;;
13834;SDS011;6988;52.614;13.500;2022-07-06T02:30:47;2.77;;;0.87;;
13834;SDS011;6988;52.614;13.500;2022-07-06T02:35:39;2.37;;;1.20;;
13834;SDS011;6988;52.614;13.500;2022-07-06T02:40:35;4.40;;;1.20;;
13834;SDS011;6988;52.614;13.500;2022-07-06T02:45:27;2.67;;;1.10;;
13834;SDS011;6988;52.614;13.500;2022-07-06T02:50:19;3.73;;;1.10;;
13834;SDS011;6988;52.614;13.500;2022-07-06T02:55:11;2.73;;;1.20;;
13834;SDS011;6988;52.614;13.500;2022-07-06T03:00:07;2.00;;;1.07;;
13834;SDS011;6988;52.614;13.500;2022-07-06T03:05:02;2.97;;;1.00;;
13834;SDS011;6988;52.614;13.500;2022-07-06T03:09:56;3.10;;;1.20;;
13834;SDS011;6988;52.614;13.500;2022-07-06T03:14:47;2.60;;;1.40;;
13834;SDS011;6988;52.614;13.500;2022-07-06T03:19:41;3.77;;;1.20;;
13834;SDS011;6988;52.614;13.500;2022-07-06T03:24:33;3.50;;;1.17;;
13834;SDS011;6988;52.614;13.500;2022-07-06T03:29:26;4.90;;;1.53;;
13834;SDS011;6988;52.614;13.500;2022-07-06T03:34:18;1.77;;;1.00;;
13834;SDS011;6988;52.614;13.500;2022-07-06T03:39:11;4.00;;;1.30;;
13834;SDS011;6988;52.614;13.500;2022-07-06T03:44:04;3.33;;;1.27;;
13834;SDS011;6988;52.614;13.500;2022-07-06T03:48:56;4.27;;;1.10;;
13834;SDS011;6988;52.614;13.500;2022-07-06T03:53:48;2.63;;;1.20;;
13834;SDS011;6988;52.614;13.500;2022-07-06T03:58:42;3.03;;;1.30;;
13834;SDS011;6988;52.614;13.500;2022-07-06T04:03:35;5.47;;;1.30;;
13834;SDS011;6988;52.614;13.500;2022-07-06T04:08:27;2.03;;;1.07;;
13834;SDS011;6988;52.614;13.500;2022-07-06T04:13:21;2.93;;;1.27;;
13834;SDS011;6988;52.614;13.500;2022-07-06T04:18:17;2.10;;;1.30;;
13834;SDS011;6988;52.614;13.500;2022-07-06T04:23:13;5.23;;;1.10;;
13834;SDS011;6988;52.614;13.500;2022-07-06T04:28:05;3.33;;;1.10;;
13834;SDS011;6988;52.614;13.500;2022-07-06T04:32:59;6.20;;;1.80;;
13834;SDS011;6988;52.614;13.500;2022-07-06T04:37:55;2.73;;;1.00;;
13834;SDS011;6988;52.614;13.500;2022-07-06T04:42:47;5.80;;;1.30;;
13834;SDS011;6988;52.614;13.500;2022-07-06T04:47:40;4.43;;;1.40;;
13834;SDS011;6988;52.614;13.500;2022-07-06T04:52:34;2.20;;;0.90;;
13834;SDS011;6988;52.614;13.500;2022-07-06T04:57:27;5.17;;;1.30;;
13834;SDS011;6988;52.614;13.500;2022-07-06T05:02:21;3.60;;;1.40;;
13834;SDS011;6988;52.614;13.500;2022-07-06T05:07:14;3.50;;;1.27;;
13834;SDS011;6988;52.614;13.500;2022-07-06T05:12:07;3.37;;;1.07;;
13834;SDS011;6988;52.614;13.500;2022-07-06T05:17:02;3.60;;;1.20;;
13834;SDS011;6988;52.614;13.500;2022-07-06T05:21:54;5.13;;;1.10;;
13834;SDS011;6988;52.614;13.500;2022-07-06T05:26:46;6.50;;;1.30;;
13834;SDS011;6988;52.614;13.500;2022-07-06T05:31:40;2.80;;;0.87;;
13834;SDS011;6988;52.614;13.500;2022-07-06T05:36:33;4.00;;;0.90;;
13834;SDS011;6988;52.614;13.500;2022-07-06T05:41:27;3.90;;;1.10;;
13834;SDS011;6988;52.614;13.500;2022-07-06T05:46:18;5.57;;;1.03;;
13834;SDS011;6988;52.614;13.500;2022-07-06T05:51:11;5.57;;;1.03;;
13834;SDS011;6988;52.614;13.500;2022-07-06T05:56:07;2.43;;;0.87;;
13834;SDS011;6988;52.614;13.500;2022-07-06T06:01:01;5.30;;;1.00;;
13834;SDS011;6988;52.614;13.500;2022-07-06T06:05:55;3.13;;;0.90;;
13834;SDS011;6988;52.614;13.500;2022-07-06T06:10:48;5.43;;;1.27;;
13834;SDS011;6988;52.614;13.500;2022-07-06T06:15:44;2.67;;;1.10;;
13834;SDS011;6988;52.614;13.500;2022-07-06T06:20:38;4.20;;;1.40;;
13834;SDS011;6988;52.614;13.500;2022-07-06T06:25:30;3.07;;;1.00;;
13834;SDS011;6988;52.614;13.500;2022-07-06T06:30:24;4.63;;;1.00;;
13834;SDS011;6988;52.614;13.500;2022-07-06T06:35:17;2.90;;;1.00;;
13834;SDS011;6988;52.614;13.500;2022-07-06T06:40:09;6.87;;;1.07;;
13834;SDS011;6988;52.614;13.500;2022-07-06T06:45:02;3.40;;;0.90;;
13834;SDS011;6988;52.614;13.500;2022-07-06T06:49:55;3.73;;;1.17;;
13834;SDS011;6988;52.614;13.500;2022-07-06T06:54:48;3.60;;;0.90;;
13834;SDS011;6988;52.614;13.500;2022-07-06T06:59:40;4.10;;;1.20;;
13834;SDS011;6988;52.614;13.500;2022-07-06T07:04:31;3.03;;;1.00;;
13834;SDS011;6988;52.614;13.500;2022-07-06T07:09:24;6.20;;;1.00;;
13834;SDS011;6988;52.614;13.500;2022-07-06T07:14:17;4.77;;;1.00;;
13834;SDS011;6988;52.614;13.500;2022-07-06T07:19:08;3.43;;;0.80;;
13834;SDS011;6988;52.614;13.500;2022-07-06T07:24:00;4.93;;;0.90;;
13834;SDS011;6988;52.614;13.500;2022-07-06T07:28:52;5.87;;;1.00;;
13834;SDS011;6988;52.614;13.500;2022-07-06T07:33:45;3.53;;;0.80;;
13834;SDS011;6988;52.614;13.500;2022-07-06T07:38:37;3.03;;;0.60;;
13834;SDS011;6988;52.614;13.500;2022-07-06T07:43:28;5.03;;;0.80;;
13834;SDS011;6988;52.614;13.500;2022-07-06T07:48:20;4.30;;;0.80;;
13834;SDS011;6988;52.614;13.500;2022-07-06T07:53:13;3.80;;;0.90;;
13834;SDS011;6988;52.614;13.500;2022-07-06T07:58:05;3.90;;;0.70;;
13834;SDS011;6988;52.614;13.500;2022-07-06T08:02:56;3.93;;;0.80;;
13834;SDS011;6988;52.614;13.500;2022-07-06T08:07:48;1.77;;;0.70;;
13834;SDS011;6988;52.614;13.500;2022-07-06T08:12:41;2.90;;;0.80;;
13834;SDS011;6988;52.614;13.500;2022-07-06T08:17:33;1.80;;;0.70;;
13834;SDS011;6988;52.614;13.500;2022-07-06T08:22:25;4.17;;;0.80;;
13834;SDS011;6988;52.614;13.500;2022-07-06T08:27:17;1.67;;;0.60;;
13834;SDS011;6988;52.614;13.500;2022-07-06T08:32:10;3.90;;;0.80;;
13834;SDS011;6988;52.614;13.500;2022-07-06T08:37:01;4.37;;;0.90;;
13834;SDS011;6988;52.614;13.500;2022-07-06T08:41:54;5.47;;;0.90;;
13834;SDS011;6988;52.614;13.500;2022-07-06T08:46:47;3.40;;;0.73;;
13834;SDS011;6988;52.614;13.500;2022-07-06T08:51:44;4.23;;;0.80;;
13834;SDS011;6988;52.614;13.500;2022-07-06T08:56:36;2.73;;;0.90;;
13834;SDS011;6988;52.614;13.500;2022-07-06T09:01:30;1.43;;;0.80;;
13834;SDS011;6988;52.614;13.500;2022-07-06T09:06:23;4.03;;;0.90;;
13834;SDS011;6988;52.614;13.500;2022-07-06T09:11:18;3.40;;;0.60;;
13834;SDS011;6988;52.614;13.500;2022-07-06T09:16:12;2.37;;;0.50;;
13834;SDS011;6988;52.614;13.500;2022-07-06T09:21:07;1.73;;;0.60;;
13834;SDS011;6988;52.614;13.500;2022-07-06T09:26:01;2.73;;;0.73;;
13834;SDS011;6988;52.614;13.500;2022-07-06T09:30:55;1.27;;;0.60;;
13834;SDS011;6988;52.614;13.500;2022-07-06T09:35:57;3.07;;;0.73;;
13834;SDS011;6988;52.614;13.500;2022-07-06T09:40:51;0.73;;;0.40;;
13834;SDS011;6988;52.614;13.500;2022-07-06T09:45:43;1.43;;;0.50;;
13834;SDS011;6988;52.614;13.500;2022-07-06T09:50:42;1.13;;;0.40;;
13834;SDS011;6988;52.614;13.500;2022-07-06T09:55:36;2.50;;;0.57;;
13834;SDS011;6988;52.614;13.500;2022-07-06T10:00:28;2.23;;;0.57;;
13834;SDS011;6988;52.614;13.500;2022-07-06T10:05:20;1.67;;;0.60;;
13834;SDS011;6988;52.614;13.500;2022-07-06T10:10:18;3.87;;;0.70;;
13834;SDS011;6988;52.614;13.500;2022-07-06T10:15:10;2.00;;;0.60;;
13834;SDS011;6988;52.614;13.500;2022-07-06T10:20:03;2.73;;;0.67;;
13834;SDS011;6988;52.614;13.500;2022-07-06T10:24:57;3.73;;;0.67;;
13834;SDS011;6988;52.614;13.500;2022-07-06T10:29:51;1.63;;;0.50;;
13834;SDS011;6988;52.614;13.500;2022-07-06T10:34:43;3.40;;;0.53;;
13834;SDS011;6988;52.614;13.500;2022-07-06T10:39:35;4.83;;;0.87;;
13834;SDS011;6988;52.614;13.500;2022-07-06T10:44:49;2.57;;;0.60;;
13834;SDS011;6988;52.614;13.500;2022-07-06T10:49:48;2.10;;;0.53;;
13834;SDS011;6988;52.614;13.500;2022-07-06T10:54:40;2.30;;;0.60;;
13834;SDS011;6988;52.614;13.500;2022-07-06T10:59:34;2.00;;;0.50;;
13834;SDS011;6988;52.614;13.500;2022-07-06T11:04:31;2.30;;;0.70;;
13834;SDS011;6988;52.614;13.500;2022-07-06T11:09:30;2.33;;;0.67;;
13834;SDS011;6988;52.614;13.500;2022-07-06T11:14:23;1.20;;;0.37;;
13834;SDS011;6988;52.614;13.500;2022-07-06T11:19:16;2.93;;;0.50;;
13834;SDS011;6988;52.614;13.500;2022-07-06T11:24:12;1.63;;;0.43;;
13834;SDS011;6988;52.614;13.500;2022-07-06T11:29:06;4.80;;;0.40;;
13834;SDS011;6988;52.614;13.500;2022-07-06T11:34:00;0.83;;;0.40;;
13834;SDS011;6988;52.614;13.500;2022-07-06T11:38:52;2.43;;;0.63;;
13834;SDS011;6988;52.614;13.500;2022-07-06T11:43:47;2.30;;;0.60;;
13834;SDS011;6988;52.614;13.500;2022-07-06T11:48:44;2.57;;;0.73;;
13834;SDS011;6988;52.614;13.500;2022-07-06T11:53:37;3.37;;;0.80;;
13834;SDS011;6988;52.614;13.500;2022-07-06T11:58:35;2.57;;;0.50;;
13834;SDS011;6988;52.614;13.500;2022-07-06T12:03:31;0.87;;;0.40;;
13834;SDS011;6988;52.614;13.500;2022-07-06T12:08:24;2.20;;;0.60;;
13834;SDS011;6988;52.614;13.500;2022-07-06T12:13:16;1.67;;;0.50;;
13834;SDS011;6988;52.614;13.500;2022-07-06T12:18:08;3.50;;;0.60;;
13834;SDS011;6988;52.614;13.500;2022-07-06T12:23:02;1.37;;;0.43;;
13834;SDS011;6988;52.614;13.500;2022-07-06T12:27:54;1.83;;;0.53;;
13834;SDS011;6988;52.614;13.500;2022-07-06T12:32:45;2.47;;;0.53;;
13834;SDS011;6988;52.614;13.500;2022-07-06T12:37:38;1.13;;;0.37;;
13834;SDS011;6988;52.614;13.500;2022-07-06T12:42:47;3.50;;;0.70;;
13834;SDS011;6988;52.614;13.500;2022-07-06T12:47:39;2.50;;;0.50;;
13834;SDS011;6988;52.614;13.500;2022-07-06T12:52:33;2.17;;;0.50;;
13834;SDS011;6988;52.614;13.500;2022-07-06T12:57:24;1.13;;;0.50;;
13834;SDS011;6988;52.614;13.500;2022-07-06T13:02:19;2.17;;;0.50;;
13834;SDS011;6988;52.614;13.500;2022-07-06T13:07:17;1.60;;;0.40;;
13834;SDS011;6988;52.614;13.500;2022-07-06T13:12:10;2.23;;;0.50;;
13834;SDS011;6988;52.614;13.500;2022-07-06T13:17:02;2.80;;;0.45;;
13834;SDS011;6988;52.614;13.500;2022-07-06T13:21:56;1.40;;;0.70;;
13834;SDS011;6988;52.614;13.500;2022-07-06T13:26:47;2.23;;;0.50;;
13834;SDS011;6988;52.614;13.500;2022-07-06T13:31:39;1.47;;;0.33;;
13834;SDS011;6988;52.614;13.500;2022-07-06T13:36:31;2.17;;;0.50;;
13834;SDS011;6988;52.614;13.500;2022-07-06T13:41:25;2.07;;;0.40;;
13834;SDS011;6988;52.614;13.500;2022-07-06T13:46:19;1.73;;;0.60;;
13834;SDS011;6988;52.614;13.500;2022-07-06T13:51:12;1.50;;;0.40;;
13834;SDS011;6988;52.614;13.500;2022-07-06T13:56:04;1.60;;;0.40;;
13834;SDS011;6988;52.614;13.500;2022-07-06T14:00:59;0.73;;;0.30;;
13834;SDS011;6988;52.614;13.500;2022-07-06T14:05:51;2.30;;;0.40;;
13834;SDS011;6988;52.614;13.500;2022-07-06T14:10:42;2.77;;;0.50;;
13834;SDS011;6988;52.614;13.500;2022-07-06T14:15:34;0.80;;;0.37;;
13834;SDS011;6988;52.614;13.500;2022-07-06T14:20:27;0.67;;;0.30;;
13834;SDS011;6988;52.614;13.500;2022-07-06T14:25:19;1.15;;;0.50;;
13834;SDS011;6988;52.614;13.500;2022-07-06T14:30:11;1.23;;;0.40;;
13834;SDS011;6988;52.614;13.500;2022-07-06T14:35:04;1.83;;;0.40;;
13834;SDS011;6988;52.614;13.500;2022-07-06T14:39:57;1.43;;;0.40;;
13834;SDS011;6988;52.614;13.500;2022-07-06T14:44:49;1.10;;;0.40;;
13834;SDS011;6988;52.614;13.500;2022-07-06T14:49:41;0.97;;;0.40;;
13834;SDS011;6988;52.614;13.500;2022-07-06T14:54:32;2.17;;;0.50;;
13834;SDS011;6988;52.614;13.500;2022-07-06T14:59:25;2.97;;;0.50;;
13834;SDS011;6988;52.614;13.500;2022-07-06T15:04:17;1.53;;;0.60;;
13834;SDS011;6988;52.614;13.500;2022-07-06T15:09:09;2.20;;;0.60;;
13834;SDS011;6988;52.614;13.500;2022-07-06T15:14:00;2.47;;;0.60;;
13834;SDS011;6988;52.614;13.500;2022-07-06T15:18:53;3.87;;;0.80;;
13834;SDS011;6988;52.614;13.500;2022-07-06T15:23:45;2.77;;;0.57;;
13834;SDS011;6988;52.614;13.500;2022-07-06T15:28:37;1.70;;;0.60;;
13834;SDS011;6988;52.614;13.500;2022-07-06T15:33:28;1.83;;;0.40;;
13834;SDS011;6988;52.614;13.500;2022-07-06T15:38:22;2.40;;;0.60;;
13834;SDS011;6988;52.614;13.500;2022-07-06T15:43:14;2.60;;;0.50;;
13834;SDS011;6988;52.614;13.500;2022-07-06T15:48:06;1.47;;;0.50;;
13834;SDS011;6988;52.614;13.500;2022-07-06T15:52:58;2.80;;;0.70;;
13834;SDS011;6988;52.614;13.500;2022-07-06T15:57:51;2.60;;;0.50;;
13834;SDS011;6988;52.614;13.500;2022-07-06T16:02:43;2.63;;;0.50;;
13834;SDS011;6988;52.614;13.500;2022-07-06T16:07:35;1.83;;;0.50;;
13834;SDS011;6988;52.614;13.500;2022-07-06T16:12:27;2.57;;;0.57;;
13834;SDS011;6988;52.614;13.500;2022-07-06T16:17:20;1.50;;;0.50;;
13834;SDS011;6988;52.614;13.500;2022-07-06T16:22:12;4.00;;;0.70;;
13834;SDS011;6988;52.614;13.500;2022-07-06T16:27:04;1.10;;;0.60;;
13834;SDS011;6988;52.614;13.500;2022-07-06T16:31:56;2.93;;;0.60;;
13834;SDS011;6988;52.614;13.500;2022-07-06T16:36:49;2.47;;;1.07;;
13834;SDS011;6988;52.614;13.500;2022-07-06T16:41:41;2.30;;;0.77;;
13834;SDS011;6988;52.614;13.500;2022-07-06T16:46:33;1.80;;;0.80;;
13834;SDS011;6988;52.614;13.500;2022-07-06T16:51:25;1.23;;;0.47;;
13834;SDS011;6988;52.614;13.500;2022-07-06T16:56:18;1.53;;;0.50;;
13834;SDS011;6988;52.614;13.500;2022-07-06T17:01:10;0.90;;;0.40;;
13834;SDS011;6988;52.614;13.500;2022-07-06T17:06:02;1.03;;;0.30;;
13834;SDS011;6988;52.614;13.500;2022-07-06T17:10:54;3.07;;;0.50;;
13834;SDS011;6988;52.614;13.500;2022-07-06T17:15:47;1.73;;;0.50;;
13834;SDS011;6988;52.614;13.500;2022-07-06T17:20:39;1.70;;;0.47;;
13834;SDS011;6988;52.614;13.500;2022-07-06T17:25:31;1.67;;;0.70;;
13834;SDS011;6988;52.614;13.500;2022-07-06T17:30:23;2.77;;;0.50;;
13834;SDS011;6988;52.614;13.500;2022-07-06T17:35:17;1.13;;;0.30;;
13834;SDS011;6988;52.614;13.500;2022-07-06T17:40:09;0.70;;;0.43;;
13834;SDS011;6988;52.614;13.500;2022-07-06T17:45:03;1.30;;;0.40;;
13834;SDS011;6988;52.614;13.500;2022-07-06T17:49:55;2.33;;;0.30;;
13834;SDS011;6988;52.614;13.500;2022-07-06T17:54:48;0.60;;;0.50;;
13834;SDS011;6988;52.614;13.500;2022-07-06T17:59:40;1.63;;;0.50;;
13834;SDS011;6988;52.614;13.500;2022-07-06T18:04:32;1.92;;;0.65;;
13834;SDS011;6988;52.614;13.500;2022-07-06T18:09:24;2.07;;;0.80;;
13834;SDS011;6988;52.614;13.500;2022-07-06T18:14:17;1.27;;;0.50;;
13834;SDS011;6988;52.614;13.500;2022-07-06T18:19:08;2.40;;;0.53;;
13834;SDS011;6988;52.614;13.500;2022-07-06T18:24:00;1.50;;;0.57;;
13834;SDS011;6988;52.614;13.500;2022-07-06T18:28:53;2.17;;;0.60;;
13834;SDS011;6988;52.614;13.500;2022-07-06T18:33:46;1.20;;;0.50;;
13834;SDS011;6988;52.614;13.500;2022-07-06T18:38:38;2.07;;;0.40;;
13834;SDS011;6988;52.614;13.500;2022-07-06T18:43:30;1.93;;;0.60;;
13834;SDS011;6988;52.614;13.500;2022-07-06T18:48:21;3.50;;;0.40;;
13834;SDS011;6988;52.614;13.500;2022-07-06T18:53:15;2.00;;;0.50;;
13834;SDS011;6988;52.614;13.500;2022-07-06T18:58:09;1.47;;;0.53;;
13834;SDS011;6988;52.614;13.500;2022-07-06T19:03:05;1.37;;;0.40;;
13834;SDS011;6988;52.614;13.500;2022-07-06T19:07:56;3.13;;;0.50;;
13834;SDS011;6988;52.614;13.500;2022-07-06T19:12:50;1.03;;;0.40;;
13834;SDS011;6988;52.614;13.500;2022-07-06T19:17:43;1.00;;;0.43;;
13834;SDS011;6988;52.614;13.500;2022-07-06T19:22:36;1.07;;;0.40;;
13834;SDS011;6988;52.614;13.500;2022-07-06T19:27:28;2.27;;;0.50;;
13834;SDS011;6988;52.614;13.500;2022-07-06T19:32:21;1.33;;;0.53;;
13834;SDS011;6988;52.614;13.500;2022-07-06T19:37:13;2.27;;;0.60;;
13834;SDS011;6988;52.614;13.500;2022-07-06T19:42:05;1.97;;;0.60;;
13834;SDS011;6988;52.614;13.500;2022-07-06T19:46:57;2.07;;;0.50;;
13834;SDS011;6988;52.614;13.500;2022-07-06T19:51:50;0.60;;;0.50;;
13834;SDS011;6988;52.614;13.500;2022-07-06T19:56:42;2.13;;;0.77;;
13834;SDS011;6988;52.614;13.500;2022-07-06T20:01:33;1.93;;;0.50;;
13834;SDS011;6988;52.614;13.500;2022-07-06T20:06:25;1.73;;;0.80;;
13834;SDS011;6988;52.614;13.500;2022-07-06T20:11:19;1.63;;;0.83;;
13834;SDS011;6988;52.614;13.500;2022-07-06T20:16:10;3.10;;;0.60;;
13834;SDS011;6988;52.614;13.500;2022-07-06T20:21:04;1.93;;;0.70;;
13834;SDS011;6988;52.614;13.500;2022-07-06T20:25:56;2.07;;;0.50;;
13834;SDS011;6988;52.614;13.500;2022-07-06T20:30:49;1.47;;;0.90;;
13834;SDS011;6988;52.614;13.500;2022-07-06T20:35:41;3.13;;;0.80;;
13834;SDS011;6988;52.614;13.500;2022-07-06T20:40:33;3.17;;;0.80;;
13834;SDS011;6988;52.614;13.500;2022-07-06T20:45:24;1.10;;;0.70;;
13834;SDS011;6988;52.614;13.500;2022-07-06T20:50:17;2.77;;;0.77;;
13834;SDS011;6988;52.614;13.500;2022-07-06T20:55:09;2.20;;;0.50;;
13834;SDS011;6988;52.614;13.500;2022-07-06T21:00:01;4.23;;;0.70;;
13834;SDS011;6988;52.614;13.500;2022-07-06T21:04:54;1.93;;;0.80;;
13834;SDS011;6988;52.614;13.500;2022-07-06T21:09:46;1.93;;;0.50;;
13834;SDS011;6988;52.614;13.500;2022-07-06T21:14:38;2.87;;;0.70;;
13834;SDS011;6988;52.614;13.500;2022-07-06T21:19:30;4.03;;;0.73;;
13834;SDS011;6988;52.614;13.500;2022-07-06T21:24:22;0.63;;;0.40;;
13834;SDS011;6988;52.614;13.500;2022-07-06T21:29:15;1.67;;;0.50;;
13834;SDS011;6988;52.614;13.500;2022-07-06T21:34:07;1.90;;;0.60;;
13834;SDS011;6988;52.614;13.500;2022-07-06T21:38:58;1.93;;;0.73;;
13834;SDS011;6988;52.614;13.500;2022-07-06T21:43:50;1.47;;;0.70;;
13834;SDS011;6988;52.614;13.500;2022-07-06T21:48:43;1.77;;;0.60;;
13834;SDS011;6988;52.614;13.500;2022-07-06T21:53:35;2.20;;;0.80;;
13834;SDS011;6988;52.614;13.500;2022-07-06T21:58:27;1.20;;;0.70;;
13834;SDS011;6988;52.614;13.500;2022-07-06T22:03:18;2.90;;;0.93;;
13834;SDS011;6988;52.614;13.500;2022-07-06T22:08:11;3.40;;;0.97;;
13834;SDS011;6988;52.614;13.500;2022-07-06T22:13:03;1.70;;;1.00;;
13834;SDS011;6988;52.614;13.500;2022-07-06T22:17:55;2.70;;;1.07;;
13834;SDS011;6988;52.614;13.500;2022-07-06T22:22:47;3.77;;;0.97;;
13834;SDS011;6988;52.614;13.500;2022-07-06T22:27:41;3.13;;;1.00;;
13834;SDS011;6988;52.614;13.500;2022-07-06T22:32:33;2.23;;;1.07;;
13834;SDS011;6988;52.614;13.500;2022-07-06T22:37:25;2.43;;;0.93;;
13834;SDS011;6988;52.614;13.500;2022-07-06T22:42:17;3.10;;;1.33;;
13834;SDS011;6988;52.614;13.500;2022-07-06T22:47:10;2.77;;;1.23;;
13834;SDS011;6988;52.614;13.500;2022-07-06T22:52:02;2.07;;;1.20;;
13834;SDS011;6988;52.614;13.500;2022-07-06T22:56:54;2.27;;;1.10;;
13834;SDS011;6988;52.614;13.500;2022-07-06T23:01:46;2.60;;;1.10;;
13834;SDS011;6988;52.614;13.500;2022-07-06T23:06:39;2.83;;;1.50;;
13834;SDS011;6988;52.614;13.500;2022-07-06T23:11:31;3.23;;;1.40;;
13834;SDS011;6988;52.614;13.500;2022-07-06T23:16:23;3.07;;;1.33;;
13834;SDS011;6988;52.614;13.500;2022-07-06T23:21:14;1.83;;;1.13;;
13834;SDS011;6988;52.614;13.500;2022-07-06T23:26:07;2.70;;;1.30;;
13834;SDS011;6988;52.614;13.500;2022-07-06T23:30:59;3.77;;;1.27;;
13834;SDS011;6988;52.614;13.500;2022-07-06T23:35:51;3.50;;;1.17;;
13834;SDS011;6988;52.614;13.500;2022-07-06T23:40:43;4.30;;;1.10;;
13834;SDS011;6988;52.614;13.500;2022-07-06T23:45:36;4.20;;;1.17;;
13834;SDS011;6988;52.614;13.500;2022-07-06T23:50:27;2.13;;;1.13;;
13834;SDS011;6988;52.614;13.500;2022-07-06T23:55:19;4.23;;;1.10;;
